Le Roy, IL (61752)

4:37 AM CDT on July 29, 2015 (GMT -0500)
LeRoy Fertilizer | | Change Station
CLOSE
Current Station
Personal Weather Station
Location: Le Roy, IL
Elevation: 784 ft
Nearby Weather Stations

Elev 784 ft 40.35 °N, 88.77 °W | Updated 12 minutes ago

Partly Cloudy
Partly Cloudy
73.1 °F
Feels Like 73.1 °F
N
0.0
Wind Variable Wind from ESE
Gusts 2.0 mph

Today
High -- | Low -- °F
--% Chance of Precip.
Yesterday
High -- | Low -- °F
Precip. -- in
5:49 AM 8:12 PM
Waxing Gibbous, 94% visible
Pressure 29.94 in
Visibility 10.0 miles
Clouds Clear
Dew Point 72 °F
Humidity 96%
Rainfall 0.09 in
Snow Depth Not available.
UV 0 out of 12
Pollen 5.40 out of 12
Air Quality Not available.
Flu Activity Not available.
METAR KBMI 290856Z AUTO 11007KT 10SM CLR 23/23 A2997 RMK AO2 50003 60157 T02270227 LTG DSNT NE-SE TSE27RAE36 P0001 SLP138

More Conditions Fewer Conditions

Pressure 29.94 in
Visibility 10.0 miles
Clouds Clear
Dew Point 72 °F
Humidity 96%
Rainfall 0.09 in
Snow Depth Not available.
UV 0 out of 12
Pollen 5.40 out of 12
Air Quality Not available.
Flu Activity Not available.
METAR KBMI 290856Z AUTO 11007KT 10SM CLR 23/23 A2997 RMK AO2 50003 60157 T02270227 LTG DSNT NE-SE TSE27RAE36 P0001 SLP138

More Conditions Fewer Conditions

10-Day Weather Forecast

×

Almanac

Astronomy

Jul. 29, 2015 Rise Set
Actual Time
Civil Twilight
Nautical Twilight
Astronomical Twilight
Moon
Length of Visible Light
Length of Day
Tomorrow will be .
, % of the Moon is Illuminated

Today's Extremes

State Highs State Lows

Community

WunderPhotos

Upload Photos

1,842,068 photos uploaded!

WunderBlogs® & News

Nearby

Air Quality

  Air Quality AQ Index Pollutant
Not available.

Snow Depth

Station Depth Elevation

Earthquake Activity

City Distance Mag. Time & Date
Minimum magnitude displayed is 2.5.

Coastal Water Temperatures

Place Temperature

Stations

Nearby Weather Stations

Station Location Temp. Windchill Dew Point Humidity Wind Precip. Elev Updated Type